Terminal Aerodrome Forecast
Issued by NWS

Home | Current Version | Previous Version | Graphics & Text | Print | Product List | Glossary On
Versions: 1 2 3 4 5 6 7 8 9 10 11 12 13 14 15 16
000
FTUS41 KCLE 270900 AAA
TAFFDY
TAF AMD
KFDY 270902Z 2709/2806 07005KT P6SM SKC
     FM271000 VRB02KT 6SM BR SKC
      TEMPO 2710/2712 2SM BR SCT002
     FM271400 07003KT P6SM SCT200=

USA.gov is the U.S. government's official web portal to all federal, state and local government web resources and services.